createdAt,value
2019-02-20T00:02:08.148Z,5.40
2019-02-20T00:04:36.672Z,5.30
2019-02-20T00:07:05.177Z,5.40
2019-02-20T00:09:33.765Z,5.40
2019-02-20T00:12:02.277Z,5.50
2019-02-20T00:14:30.792Z,5.50
2019-02-20T00:16:59.327Z,5.40
2019-02-20T00:19:27.824Z,5.50
2019-02-20T00:21:56.356Z,5.40
2019-02-20T00:24:24.876Z,5.40
2019-02-20T00:26:53.386Z,5.50
2019-02-20T00:29:21.988Z,5.50
2019-02-20T00:31:50.677Z,5.40
2019-02-20T00:34:19.385Z,5.40
2019-02-20T00:36:47.932Z,5.30
2019-02-20T00:39:16.419Z,5.30
2019-02-20T00:41:44.963Z,5.20
2019-02-20T00:44:31.374Z,5.10
2019-02-20T00:47:01.536Z,5.10
2019-02-20T00:49:31.672Z,5.10
2019-02-20T00:52:07.571Z,5.00
2019-02-20T00:54:36.085Z,4.90
2019-02-20T00:57:04.590Z,4.90
2019-02-20T00:59:33.128Z,4.80
2019-02-20T01:02:01.646Z,4.60
2019-02-20T01:04:30.188Z,4.50
2019-02-20T01:06:58.681Z,4.50
2019-02-20T01:09:27.281Z,4.40
2019-02-20T01:11:55.808Z,4.30
2019-02-20T01:14:24.317Z,4.20
2019-02-20T01:16:52.954Z,4.10
2019-02-20T01:19:21.462Z,4.10
2019-02-20T01:21:49.978Z,4.00
2019-02-20T01:24:18.505Z,3.90
2019-02-20T01:26:47.014Z,3.80
2019-02-20T01:29:16.028Z,3.80
2019-02-20T01:31:44.829Z,3.70
2019-02-20T01:34:13.329Z,3.70
2019-02-20T01:36:41.887Z,3.80
2019-02-20T01:39:10.378Z,3.80
2019-02-20T01:41:39.252Z,3.70
2019-02-20T01:44:07.756Z,3.60
2019-02-20T01:46:36.357Z,3.60
2019-02-20T01:49:04.855Z,3.60
2019-02-20T01:51:33.451Z,3.50
2019-02-20T01:54:02.063Z,3.40
2019-02-20T01:56:30.560Z,3.50
2019-02-20T01:58:59.088Z,3.50
2019-02-20T02:01:27.607Z,3.50
2019-02-20T02:03:56.175Z,3.40
2019-02-20T02:06:24.726Z,3.20
2019-02-20T02:08:53.261Z,3.10
2019-02-20T02:11:21.806Z,3.20
2019-02-20T02:13:50.303Z,3.20
2019-02-20T02:16:21.994Z,3.20
2019-02-20T02:18:49.797Z,3.20
2019-02-20T02:21:18.362Z,3.20
2019-02-20T02:23:47.662Z,3.20
2019-02-20T02:26:16.296Z,3.20
2019-02-20T02:28:44.817Z,3.20
2019-02-20T02:31:13.351Z,3.20
2019-02-20T02:33:41.870Z,3.30
2019-02-20T02:36:10.371Z,3.40
2019-02-20T02:38:38.938Z,3.40
2019-02-20T02:41:07.434Z,3.50
2019-02-20T02:43:35.942Z,3.50
2019-02-20T02:46:04.490Z,3.40
2019-02-20T02:48:33.004Z,3.40
2019-02-20T02:51:01.535Z,3.50
2019-02-20T02:53:31.051Z,3.60
2019-02-20T02:55:59.771Z,3.60
2019-02-20T02:58:28.298Z,3.50
2019-02-20T03:00:56.780Z,3.70
2019-02-20T03:03:25.324Z,3.60
2019-02-20T03:05:53.823Z,3.60
2019-02-20T03:08:22.502Z,3.60
2019-02-20T03:11:08.826Z,3.50
2019-02-20T03:13:55.564Z,3.60
2019-02-20T03:16:24.177Z,3.60
2019-02-20T03:18:52.761Z,3.40
2019-02-20T03:21:21.303Z,3.40
2019-02-20T03:23:49.810Z,3.30
2019-02-20T03:26:18.349Z,3.40
2019-02-20T03:28:46.846Z,3.50
2019-02-20T03:31:15.396Z,3.50
2019-02-20T03:33:43.918Z,3.50
2019-02-20T03:36:12.424Z,3.60
2019-02-20T03:38:40.967Z,3.50
2019-02-20T03:41:09.468Z,3.50
2019-02-20T03:43:38.015Z,3.50
2019-02-20T03:46:06.521Z,3.50
2019-02-20T03:48:35.209Z,3.60
2019-02-20T03:51:03.741Z,3.70
2019-02-20T03:53:32.249Z,3.70
2019-02-20T03:56:01.060Z,3.90
2019-02-20T03:58:29.575Z,4.00
2019-02-20T04:00:58.115Z,4.00
2019-02-20T04:03:26.609Z,4.00
2019-02-20T04:05:55.157Z,4.10
2019-02-20T04:08:23.846Z,4.10
2019-02-20T04:10:52.392Z,4.10
2019-02-20T04:13:20.962Z,4.10
2019-02-20T04:15:49.642Z,4.20
2019-02-20T04:18:18.194Z,4.10
2019-02-20T04:20:46.773Z,4.00
2019-02-20T04:23:15.305Z,4.10
2019-02-20T04:25:43.829Z,4.20
2019-02-20T04:28:12.513Z,4.20
2019-02-20T04:30:41.016Z,4.30
2019-02-20T04:33:09.520Z,4.30
2019-02-20T04:35:38.054Z,4.40
2019-02-20T04:38:06.590Z,4.40
2019-02-20T04:40:35.104Z,4.50
2019-02-20T04:43:03.629Z,4.60
2019-02-20T04:45:32.273Z,4.60
2019-02-20T04:48:00.773Z,4.60
2019-02-20T04:50:29.288Z,4.40
2019-02-20T04:52:57.829Z,4.40
2019-02-20T04:55:26.355Z,4.40
2019-02-20T04:58:18.651Z,4.40
2019-02-20T05:00:47.165Z,4.50
2019-02-20T05:03:15.744Z,4.60
2019-02-20T05:05:44.287Z,4.60
2019-02-20T05:08:12.795Z,4.60
2019-02-20T05:10:41.361Z,4.50
2019-02-20T05:13:09.881Z,4.50
2019-02-20T05:15:38.368Z,4.60
2019-02-20T05:18:06.897Z,4.70
2019-02-20T05:20:35.501Z,4.60
2019-02-20T05:23:04.207Z,4.70
2019-02-20T05:25:32.732Z,4.70
2019-02-20T05:28:01.271Z,4.70
2019-02-20T05:30:29.881Z,4.70
2019-02-20T05:32:58.360Z,4.80
2019-02-20T05:35:26.886Z,4.80
2019-02-20T05:37:55.388Z,4.80
2019-02-20T05:40:23.917Z,4.90
2019-02-20T05:42:52.577Z,4.90
2019-02-20T05:45:22.864Z,4.90
2019-02-20T05:47:51.471Z,5.00
2019-02-20T05:50:19.986Z,5.00
2019-02-20T05:52:48.506Z,5.00
2019-02-20T05:55:17.019Z,5.00
2019-02-20T05:57:45.575Z,5.00
2019-02-20T06:00:14.623Z,5.00
2019-02-20T06:02:43.215Z,4.90
2019-02-20T06:05:11.708Z,5.00
2019-02-20T06:07:40.216Z,5.00
2019-02-20T06:10:09.651Z,5.10
2019-02-20T06:12:38.136Z,5.10
2019-02-20T06:15:09.360Z,5.10
2019-02-20T06:17:37.826Z,5.00
2019-02-20T06:20:08.810Z,5.00
2019-02-20T06:22:37.636Z,4.90
2019-02-20T06:25:06.244Z,4.90
2019-02-20T06:27:34.875Z,5.00
2019-02-20T06:30:04.167Z,5.10
2019-02-20T06:32:32.711Z,5.20
2019-02-20T06:35:01.216Z,5.20
2019-02-20T06:37:29.822Z,5.20
2019-02-20T06:39:58.389Z,5.20
2019-02-20T06:42:26.949Z,5.20
2019-02-20T06:44:55.464Z,5.30
2019-02-20T06:47:24.069Z,5.40
2019-02-20T06:49:52.615Z,5.50
2019-02-20T06:52:21.157Z,5.60
2019-02-20T06:54:53.809Z,5.60
2019-02-20T06:57:19.808Z,5.60
2019-02-20T06:59:48.432Z,5.70
2019-02-20T07:02:17.112Z,5.70
2019-02-20T07:05:22.405Z,5.70
2019-02-20T07:08:13.697Z,5.70
2019-02-20T07:10:51.312Z,5.80
2019-02-20T07:13:22.351Z,5.70
2019-02-20T07:16:06.191Z,5.70
2019-02-20T07:18:40.841Z,5.70
2019-02-20T07:21:38.459Z,5.80
2019-02-20T07:24:22.415Z,5.70
2019-02-20T07:27:00.027Z,5.70
2019-02-20T07:29:46.762Z,5.80
2019-02-20T07:32:17.174Z,5.80
2019-02-20T07:34:45.665Z,5.80
2019-02-20T07:37:14.194Z,5.80
2019-02-20T07:39:42.745Z,5.90
2019-02-20T07:42:11.259Z,5.90
2019-02-20T07:44:39.809Z,6.00
2019-02-20T07:47:09.197Z,6.00
2019-02-20T07:49:37.813Z,6.00
2019-02-20T07:52:06.387Z,6.20
2019-02-20T07:54:34.911Z,6.20
2019-02-20T07:57:03.447Z,6.20
2019-02-20T07:59:31.935Z,6.20
2019-02-20T08:02:00.573Z,6.20
2019-02-20T08:04:29.065Z,6.30
2019-02-20T08:06:57.638Z,6.40
2019-02-20T08:09:26.160Z,6.50
2019-02-20T08:11:54.670Z,6.60
2019-02-20T08:14:23.206Z,6.70
2019-02-20T08:16:52.728Z,6.80
2019-02-20T08:19:22.031Z,6.80
2019-02-20T08:21:50.840Z,6.90
2019-02-20T08:24:19.375Z,7.00
2019-02-20T08:26:47.900Z,7.00
2019-02-20T08:29:16.399Z,7.10
2019-02-20T08:31:44.933Z,7.20
2019-02-20T08:34:13.427Z,7.20
2019-02-20T08:36:42.059Z,7.20
2019-02-20T08:39:10.582Z,7.20
2019-02-20T08:41:39.154Z,7.40
2019-02-20T08:44:07.675Z,7.50
2019-02-20T08:46:36.385Z,7.50
2019-02-20T08:49:04.935Z,7.50
2019-02-20T08:51:33.432Z,7.70
2019-02-20T08:54:04.343Z,7.70
2019-02-20T08:56:32.154Z,7.50
2019-02-20T08:59:00.708Z,7.40
2019-02-20T09:01:29.233Z,7.60
2019-02-20T09:03:57.768Z,7.60
2019-02-20T09:06:26.314Z,7.90
2019-02-20T09:08:54.802Z,8.10
2019-02-20T09:11:23.333Z,8.10
2019-02-20T09:13:51.852Z,8.20
2019-02-20T09:16:20.358Z,8.00
2019-02-20T09:18:48.956Z,8.10
2019-02-20T09:21:17.477Z,8.30
2019-02-20T09:23:46.133Z,8.30
2019-02-20T09:26:14.645Z,8.60
2019-02-20T09:28:43.223Z,8.50
2019-02-20T09:31:11.827Z,8.70
2019-02-20T09:33:40.339Z,8.60
2019-02-20T09:36:08.860Z,8.40
2019-02-20T09:38:37.390Z,8.70
2019-02-20T09:41:05.932Z,8.80
2019-02-20T09:43:34.427Z,8.90
2019-02-20T09:46:03.028Z,8.70
2019-02-20T09:48:31.553Z,8.40
2019-02-20T09:51:00.057Z,8.50
2019-02-20T09:53:28.662Z,8.80
2019-02-20T09:55:57.169Z,8.80
2019-02-20T09:58:25.704Z,9.10
2019-02-20T10:00:54.215Z,9.40
2019-02-20T10:03:22.814Z,9.40
2019-02-20T10:05:51.326Z,9.10
2019-02-20T10:08:19.973Z,9.10
2019-02-20T10:10:48.469Z,9.20
2019-02-20T10:13:16.995Z,9.00
2019-02-20T10:15:45.537Z,9.10
2019-02-20T10:18:14.100Z,8.80
2019-02-20T10:20:42.702Z,8.70
2019-02-20T10:23:11.217Z,8.80
2019-02-20T10:25:39.802Z,9.10
2019-02-20T10:28:08.322Z,9.10
2019-02-20T10:30:36.847Z,9.60
2019-02-20T10:33:05.387Z,9.70
2019-02-20T10:35:34.330Z,9.70
2019-02-20T10:38:02.830Z,9.60
2019-02-20T10:40:31.318Z,9.50
2019-02-20T10:42:59.875Z,9.60
2019-02-20T10:45:28.441Z,9.60
2019-02-20T10:47:56.910Z,9.70
2019-02-20T10:50:25.469Z,10.00
2019-02-20T10:52:53.986Z,10.10
2019-02-20T10:55:22.600Z,10.00
2019-02-20T10:57:51.105Z,9.90
2019-02-20T11:00:24.595Z,10.00
2019-02-20T11:02:53.351Z,10.10
2019-02-20T11:05:21.940Z,10.30
2019-02-20T11:07:50.430Z,10.20
2019-02-20T11:10:18.939Z,10.30
2019-02-20T11:12:47.459Z,10.30
2019-02-20T11:15:16.080Z,10.50
2019-02-20T11:17:44.616Z,10.70
2019-02-20T11:20:13.795Z,10.80
2019-02-20T11:22:42.508Z,11.00
2019-02-20T11:25:12.461Z,11.00
2019-02-20T11:27:40.982Z,11.10
2019-02-20T11:30:15.835Z,11.10
2019-02-20T11:32:44.358Z,11.10
2019-02-20T11:35:12.926Z,11.00
2019-02-20T11:37:41.519Z,11.00
2019-02-20T11:40:11.916Z,10.70
2019-02-20T11:42:40.449Z,10.80
2019-02-20T11:45:13.500Z,10.90
2019-02-20T11:47:42.039Z,10.60
2019-02-20T11:50:11.191Z,11.10
2019-02-20T11:52:40.208Z,11.00
2019-02-20T11:55:13.322Z,10.90
2019-02-20T11:57:41.905Z,11.00
2019-02-20T12:00:15.221Z,11.40
2019-02-20T12:02:43.762Z,11.90
2019-02-20T12:05:12.300Z,11.90
2019-02-20T12:07:40.807Z,12.20
2019-02-20T12:10:12.802Z,12.20
2019-02-20T12:12:41.474Z,12.60
2019-02-20T12:15:10.351Z,12.60
2019-02-20T12:17:38.914Z,12.40
2019-02-20T12:20:08.603Z,12.30
2019-02-20T12:22:37.107Z,12.50
2019-02-20T12:25:07.784Z,12.50
2019-02-20T12:27:36.703Z,12.50
2019-02-20T12:30:12.451Z,12.20
2019-02-20T12:32:41.036Z,12.20
2019-02-20T12:35:09.645Z,11.80
2019-02-20T12:37:38.187Z,12.20
2019-02-20T12:40:08.682Z,12.20
2019-02-20T12:42:37.209Z,12.60
2019-02-20T12:45:07.522Z,12.20
2019-02-20T12:47:36.135Z,12.50
2019-02-20T12:50:07.412Z,12.60
2019-02-20T12:52:35.957Z,13.10
2019-02-20T12:55:05.428Z,13.20
2019-02-20T12:57:33.945Z,12.50
2019-02-20T13:00:02.960Z,12.60
2019-02-20T13:02:31.476Z,12.80
2019-02-20T13:05:00.469Z,13.20
2019-02-20T13:07:29.102Z,13.30
2019-02-20T13:09:57.907Z,12.40
2019-02-20T13:12:26.440Z,12.50
2019-02-20T13:14:55.316Z,13.00
2019-02-20T13:17:23.861Z,13.30
2019-02-20T13:19:52.495Z,13.00
2019-02-20T13:22:21.082Z,13.30
2019-02-20T13:24:49.606Z,12.70
2019-02-20T13:27:22.653Z,13.10
2019-02-20T13:29:48.332Z,12.70
2019-02-20T13:32:16.848Z,13.40
2019-02-20T13:34:46.409Z,13.60
2019-02-20T13:37:14.925Z,13.70
2019-02-20T13:39:43.640Z,14.80
2019-02-20T13:42:12.172Z,15.30
2019-02-20T13:44:40.742Z,15.40
2019-02-20T13:47:09.251Z,15.30
2019-02-20T13:49:37.935Z,14.90
2019-02-20T13:52:06.547Z,14.90
2019-02-20T13:54:35.651Z,14.90
2019-02-20T13:57:04.397Z,14.30
2019-02-20T13:59:33.421Z,14.10
2019-02-20T14:02:02.004Z,13.80
2019-02-20T14:04:30.515Z,13.60
2019-02-20T14:06:59.872Z,13.80
2019-02-20T14:09:28.534Z,14.10
2019-02-20T14:11:57.086Z,14.00
2019-02-20T14:14:25.844Z,14.40
2019-02-20T14:16:54.895Z,14.70
2019-02-20T14:19:23.392Z,14.90
2019-02-20T14:21:51.950Z,15.50
2019-02-20T14:24:20.452Z,15.60
2019-02-20T14:26:49.012Z,15.70
2019-02-20T14:29:17.695Z,16.40
2019-02-20T14:31:46.215Z,16.50
2019-02-20T14:34:15.040Z,15.90
2019-02-20T14:36:43.557Z,15.20
2019-02-20T14:39:12.122Z,15.00
2019-02-20T14:41:40.870Z,14.80
2019-02-20T14:44:09.523Z,14.80
2019-02-20T14:46:38.038Z,15.00
2019-02-20T14:49:06.581Z,15.70
2019-02-20T14:51:35.208Z,15.90
2019-02-20T14:54:03.792Z,16.30
2019-02-20T14:56:32.576Z,16.70
2019-02-20T14:59:01.122Z,17.10
2019-02-20T15:01:29.751Z,17.30
2019-02-20T15:03:58.804Z,16.90
2019-02-20T15:06:27.703Z,17.40
2019-02-20T15:08:56.231Z,17.00
2019-02-20T15:11:24.755Z,17.10
2019-02-20T15:13:55.318Z,16.90
2019-02-20T15:16:23.589Z,16.80
2019-02-20T15:18:52.177Z,16.70
2019-02-20T15:21:20.770Z,16.50
2019-02-20T15:23:49.362Z,15.70
2019-02-20T15:26:18.196Z,15.20
2019-02-20T15:28:46.810Z,15.30
2019-02-20T15:31:15.334Z,15.80
2019-02-20T15:33:44.220Z,16.00
2019-02-20T15:36:12.766Z,16.00
2019-02-20T15:38:42.369Z,15.90
2019-02-20T15:41:11.015Z,15.90
2019-02-20T15:43:39.539Z,15.70
2019-02-20T15:46:08.243Z,14.90
2019-02-20T15:48:36.722Z,14.00
2019-02-20T15:51:05.309Z,13.20
2019-02-20T15:53:33.799Z,13.20
2019-02-20T15:56:03.105Z,13.30
2019-02-20T15:58:31.645Z,12.90
2019-02-20T16:01:00.183Z,12.50
2019-02-20T16:03:28.841Z,12.40
2019-02-20T16:05:57.425Z,12.20
2019-02-20T16:08:26.088Z,12.00
2019-02-20T16:10:55.215Z,11.70
2019-02-20T16:13:23.996Z,11.70
2019-02-20T16:15:52.756Z,11.80
2019-02-20T16:18:21.468Z,11.70
2019-02-20T16:20:50.002Z,11.50
2019-02-20T16:23:18.666Z,11.20
2019-02-20T16:25:47.417Z,11.20
2019-02-20T16:28:16.660Z,11.00
2019-02-20T16:30:45.308Z,11.00
2019-02-20T16:33:13.836Z,10.80
2019-02-20T16:35:42.376Z,10.70
2019-02-20T16:38:11.312Z,10.60
2019-02-20T16:40:40.015Z,10.50
2019-02-20T16:43:08.603Z,10.50
2019-02-20T16:45:37.432Z,10.40
2019-02-20T16:48:05.967Z,10.40
2019-02-20T16:50:34.629Z,10.20
2019-02-20T16:53:03.164Z,10.00
2019-02-20T16:55:31.707Z,10.00
2019-02-20T16:58:00.221Z,10.00
2019-02-20T17:00:29.199Z,10.00
2019-02-20T17:02:57.734Z,10.00
2019-02-20T17:05:26.279Z,10.00
2019-02-20T17:07:54.877Z,9.90
2019-02-20T17:10:23.455Z,9.70
2019-02-20T17:12:52.134Z,9.70
2019-02-20T17:15:20.649Z,9.60
2019-02-20T17:17:50.109Z,9.60
2019-02-20T17:20:20.333Z,9.60
2019-02-20T17:22:48.945Z,9.60
2019-02-20T17:25:18.487Z,9.50
2019-02-20T17:27:47.003Z,9.40
2019-02-20T17:30:16.691Z,9.30
2019-02-20T17:32:45.532Z,9.30
2019-02-20T17:35:14.591Z,9.20
2019-02-20T17:37:43.228Z,9.20
2019-02-20T17:40:12.788Z,9.10
2019-02-20T17:42:47.551Z,9.20
2019-02-20T17:45:17.583Z,9.10
2019-02-20T17:47:46.410Z,9.20
2019-02-20T17:50:22.165Z,9.10
2019-02-20T17:52:51.038Z,9.10
2019-02-20T17:55:19.712Z,9.00
2019-02-20T17:57:48.299Z,9.10
2019-02-20T18:00:21.805Z,9.10
2019-02-20T18:02:50.268Z,9.10
2019-02-20T18:05:19.120Z,9.10
2019-02-20T18:07:51.393Z,9.00
2019-02-20T18:10:17.955Z,9.00
2019-02-20T18:12:46.493Z,9.00
2019-02-20T18:15:14.994Z,8.90
2019-02-20T18:17:43.749Z,8.80
2019-02-20T18:20:12.593Z,8.80
2019-02-20T18:22:41.234Z,8.80
2019-02-20T18:25:11.012Z,8.70
2019-02-20T18:27:39.584Z,8.70
2019-02-20T18:30:11.537Z,8.60
2019-02-20T18:32:40.247Z,8.60
2019-02-20T18:35:17.339Z,8.60
2019-02-20T18:37:45.859Z,8.60
2019-02-20T18:40:16.527Z,8.40
2019-02-20T18:42:45.040Z,8.40
2019-02-20T18:45:14.916Z,8.40
2019-02-20T18:47:43.464Z,8.40
2019-02-20T18:50:13.437Z,8.30
2019-02-20T18:52:41.955Z,8.20
2019-02-20T18:55:12.697Z,8.40
2019-02-20T18:57:41.272Z,8.40
2019-02-20T19:00:12.708Z,8.30
2019-02-20T19:02:41.283Z,8.20
2019-02-20T19:05:10.723Z,8.20
2019-02-20T19:07:39.317Z,8.10
2019-02-20T19:10:14.246Z,8.20
2019-02-20T19:13:09.681Z,8.10
2019-02-20T19:15:55.959Z,8.10
2019-02-20T19:18:33.542Z,8.00
2019-02-20T19:21:05.340Z,8.10
2019-02-20T19:23:59.603Z,8.10
2019-02-20T19:26:34.577Z,7.90
2019-02-20T19:29:15.124Z,8.00
2019-02-20T19:32:05.171Z,7.90
2019-02-20T19:34:40.392Z,7.80
2019-02-20T19:37:13.300Z,7.90
2019-02-20T19:39:47.940Z,8.00
2019-02-20T19:42:42.984Z,7.90
2019-02-20T19:45:20.437Z,7.80
2019-02-20T19:47:55.026Z,7.80
2019-02-20T19:50:26.811Z,7.70
2019-02-20T19:53:04.406Z,7.70
2019-02-20T19:55:41.888Z,7.90
2019-02-20T19:58:16.598Z,7.80
2019-02-20T20:00:54.344Z,7.70
2019-02-20T20:03:38.321Z,7.60
2019-02-20T20:06:29.659Z,7.50
2019-02-20T20:09:13.572Z,7.50
2019-02-20T20:11:51.136Z,7.40
2019-02-20T20:14:39.439Z,7.30
2019-02-20T20:17:28.006Z,7.20
2019-02-20T20:20:05.586Z,7.20
2019-02-20T20:22:40.296Z,7.10
2019-02-20T20:25:21.139Z,7.10
2019-02-20T20:28:12.114Z,7.10
2019-02-20T20:30:46.732Z,7.00
2019-02-20T20:33:30.455Z,7.00
2019-02-20T20:36:14.102Z,7.10
2019-02-20T20:38:48.432Z,7.00
2019-02-20T20:41:32.468Z,7.00
2019-02-20T20:44:12.520Z,7.00
2019-02-20T20:46:59.158Z,7.00
2019-02-20T20:49:42.052Z,7.10
2019-02-20T20:52:33.903Z,7.00
2019-02-20T20:55:40.715Z,7.00
2019-02-20T20:58:18.447Z,6.90
2019-02-20T21:01:12.991Z,6.90
2019-02-20T21:04:17.934Z,7.00
2019-02-20T21:07:09.523Z,6.90
2019-02-20T21:09:53.334Z,6.90
2019-02-20T21:12:36.488Z,6.80
2019-02-20T21:15:30.911Z,6.80
2019-02-20T21:18:11.702Z,6.70
2019-02-20T21:20:54.868Z,6.70
2019-02-20T21:23:26.652Z,6.50
2019-02-20T21:25:56.121Z,6.50
2019-02-20T21:29:00.238Z,6.40
2019-02-20T21:32:02.057Z,6.40
2019-02-20T21:34:42.347Z,6.40
2019-02-20T21:37:16.571Z,6.30
2019-02-20T21:40:00.362Z,6.20
2019-02-20T21:42:54.099Z,6.30
2019-02-20T21:45:31.455Z,6.30
2019-02-20T21:48:11.949Z,6.30
2019-02-20T21:50:55.465Z,6.30
2019-02-20T21:53:27.221Z,6.30
2019-02-20T21:56:08.952Z,6.20
2019-02-20T21:59:12.697Z,6.10
2019-02-20T22:02:01.179Z,6.10
2019-02-20T22:04:54.063Z,6.10
2019-02-20T22:07:51.760Z,6.10
2019-02-20T22:10:50.866Z,6.10
2019-02-20T22:13:25.834Z,6.00
2019-02-20T22:16:23.052Z,6.00
2019-02-20T22:19:14.103Z,6.10
2019-02-20T22:22:07.030Z,6.00
2019-02-20T22:25:02.472Z,6.00
2019-02-20T22:27:43.363Z,6.00
2019-02-20T22:30:30.142Z,5.90
2019-02-20T22:33:16.798Z,6.00
2019-02-20T22:35:54.352Z,5.90
2019-02-20T22:38:54.712Z,5.90
2019-02-20T22:41:29.196Z,5.90
2019-02-20T22:44:34.178Z,5.80
2019-02-20T22:47:17.899Z,5.70
2019-02-20T22:50:04.938Z,5.70
2019-02-20T22:52:39.309Z,5.70
2019-02-20T22:55:11.108Z,5.60
2019-02-20T22:57:49.615Z,5.70
2019-02-20T23:00:54.875Z,5.60
2019-02-20T23:03:45.043Z,5.60
2019-02-20T23:06:33.233Z,5.60
2019-02-20T23:09:23.117Z,5.50
2019-02-20T23:12:13.058Z,5.50
2019-02-20T23:14:57.677Z,5.40
2019-02-20T23:17:27.385Z,5.40
2019-02-20T23:19:56.459Z,5.40
2019-02-20T23:22:24.970Z,5.30
2019-02-20T23:24:53.487Z,5.30
2019-02-20T23:27:22.108Z,5.40
2019-02-20T23:29:50.612Z,5.30
2019-02-20T23:32:19.363Z,5.30
2019-02-20T23:34:47.846Z,5.30
2019-02-20T23:37:16.347Z,5.20
2019-02-20T23:39:44.944Z,5.20
2019-02-20T23:42:13.493Z,5.30
2019-02-20T23:44:42.067Z,5.20
2019-02-20T23:47:10.568Z,5.20
2019-02-20T23:49:39.144Z,5.30
2019-02-20T23:52:07.651Z,5.20
2019-02-20T23:54:36.154Z,5.30
2019-02-20T23:57:04.698Z,5.30
2019-02-20T23:59:33.205Z,5.30
